sensor_id;sensor_type;location;lat;lon;timestamp;P1;durP1;ratioP1;P2;durP2;ratioP2
37483;SDS011;23337;52.212;9.926;2023-05-10T00:01:24;3.33;;;2.63;;
37483;SDS011;23337;52.212;9.926;2023-05-10T00:03:50;2.27;;;2.07;;
37483;SDS011;23337;52.212;9.926;2023-05-10T00:06:16;4.63;;;2.60;;
37483;SDS011;23337;52.212;9.926;2023-05-10T00:08:42;3.90;;;2.67;;
37483;SDS011;23337;52.212;9.926;2023-05-10T00:11:08;3.43;;;2.57;;
37483;SDS011;23337;52.212;9.926;2023-05-10T00:13:34;3.60;;;2.70;;
37483;SDS011;23337;52.212;9.926;2023-05-10T00:16:00;4.33;;;2.73;;
37483;SDS011;23337;52.212;9.926;2023-05-10T00:18:26;4.17;;;2.50;;
37483;SDS011;23337;52.212;9.926;2023-05-10T00:20:52;2.93;;;2.50;;
37483;SDS011;23337;52.212;9.926;2023-05-10T00:23:18;3.57;;;2.40;;
37483;SDS011;23337;52.212;9.926;2023-05-10T00:25:43;6.30;;;2.90;;
37483;SDS011;23337;52.212;9.926;2023-05-10T00:28:10;3.17;;;2.50;;
37483;SDS011;23337;52.212;9.926;2023-05-10T00:30:35;2.70;;;2.30;;
37483;SDS011;23337;52.212;9.926;2023-05-10T00:33:01;2.63;;;2.20;;
37483;SDS011;23337;52.212;9.926;2023-05-10T00:35:27;2.97;;;2.43;;
37483;SDS011;23337;52.212;9.926;2023-05-10T00:37:53;3.73;;;2.30;;
37483;SDS011;23337;52.212;9.926;2023-05-10T00:40:19;3.53;;;3.23;;
37483;SDS011;23337;52.212;9.926;2023-05-10T00:42:45;4.73;;;2.50;;
37483;SDS011;23337;52.212;9.926;2023-05-10T00:45:11;3.00;;;2.73;;
37483;SDS011;23337;52.212;9.926;2023-05-10T00:47:37;2.63;;;2.43;;
37483;SDS011;23337;52.212;9.926;2023-05-10T00:50:03;4.10;;;2.43;;
37483;SDS011;23337;52.212;9.926;2023-05-10T00:52:30;2.70;;;2.37;;
37483;SDS011;23337;52.212;9.926;2023-05-10T00:54:56;4.30;;;2.80;;
37483;SDS011;23337;52.212;9.926;2023-05-10T00:57:23;5.03;;;2.67;;
37483;SDS011;23337;52.212;9.926;2023-05-10T00:59:49;4.17;;;3.00;;
37483;SDS011;23337;52.212;9.926;2023-05-10T01:02:16;4.20;;;3.10;;
37483;SDS011;23337;52.212;9.926;2023-05-10T01:04:42;3.57;;;2.87;;
37483;SDS011;23337;52.212;9.926;2023-05-10T01:07:08;5.87;;;2.83;;
37483;SDS011;23337;52.212;9.926;2023-05-10T01:09:35;5.20;;;3.07;;
37483;SDS011;23337;52.212;9.926;2023-05-10T01:12:01;4.47;;;3.17;;
37483;SDS011;23337;52.212;9.926;2023-05-10T01:14:28;4.27;;;3.20;;
37483;SDS011;23337;52.212;9.926;2023-05-10T01:16:54;3.17;;;2.87;;
37483;SDS011;23337;52.212;9.926;2023-05-10T01:19:24;5.13;;;3.07;;
37483;SDS011;23337;52.212;9.926;2023-05-10T01:27:20;4.20;;;2.97;;
37483;SDS011;23337;52.212;9.926;2023-05-10T01:30:16;3.50;;;3.20;;
37483;SDS011;23337;52.212;9.926;2023-05-10T01:35:23;3.47;;;3.07;;
37483;SDS011;23337;52.212;9.926;2023-05-10T01:37:57;4.27;;;3.63;;
37483;SDS011;23337;52.212;9.926;2023-05-10T01:42:52;5.97;;;3.20;;
37483;SDS011;23337;52.212;9.926;2023-05-10T01:45:37;3.87;;;3.43;;
37483;SDS011;23337;52.212;9.926;2023-05-10T01:48:05;4.90;;;3.20;;
37483;SDS011;23337;52.212;9.926;2023-05-10T01:50:32;4.80;;;3.30;;
37483;SDS011;23337;52.212;9.926;2023-05-10T01:52:59;3.50;;;3.20;;
37483;SDS011;23337;52.212;9.926;2023-05-10T01:55:28;5.17;;;3.80;;
37483;SDS011;23337;52.212;9.926;2023-05-10T01:58:02;4.23;;;2.97;;
37483;SDS011;23337;52.212;9.926;2023-05-10T02:00:29;5.33;;;3.43;;
37483;SDS011;23337;52.212;9.926;2023-05-10T02:02:56;5.63;;;3.97;;
37483;SDS011;23337;52.212;9.926;2023-05-10T02:05:22;6.13;;;3.90;;
37483;SDS011;23337;52.212;9.926;2023-05-10T02:07:49;3.27;;;2.97;;
37483;SDS011;23337;52.212;9.926;2023-05-10T02:10:15;5.07;;;3.57;;
37483;SDS011;23337;52.212;9.926;2023-05-10T02:12:42;7.63;;;3.70;;
37483;SDS011;23337;52.212;9.926;2023-05-10T02:15:08;3.57;;;3.27;;
37483;SDS011;23337;52.212;9.926;2023-05-10T02:17:37;7.00;;;3.80;;
37483;SDS011;23337;52.212;9.926;2023-05-10T02:20:03;5.40;;;3.73;;
37483;SDS011;23337;52.212;9.926;2023-05-10T02:22:30;6.20;;;3.77;;
37483;SDS011;23337;52.212;9.926;2023-05-10T02:24:57;8.87;;;4.60;;
37483;SDS011;23337;52.212;9.926;2023-05-10T02:27:23;7.70;;;6.43;;
37483;SDS011;23337;52.212;9.926;2023-05-10T02:29:50;9.33;;;6.73;;
37483;SDS011;23337;52.212;9.926;2023-05-10T02:32:17;8.00;;;6.03;;
37483;SDS011;23337;52.212;9.926;2023-05-10T02:34:43;6.30;;;4.50;;
37483;SDS011;23337;52.212;9.926;2023-05-10T02:37:10;5.40;;;4.37;;
37483;SDS011;23337;52.212;9.926;2023-05-10T02:39:37;4.33;;;3.63;;
37483;SDS011;23337;52.212;9.926;2023-05-10T02:42:08;4.13;;;3.53;;
37483;SDS011;23337;52.212;9.926;2023-05-10T02:44:35;6.57;;;3.60;;
37483;SDS011;23337;52.212;9.926;2023-05-10T02:47:01;6.53;;;3.73;;
37483;SDS011;23337;52.212;9.926;2023-05-10T02:49:28;6.00;;;3.23;;
37483;SDS011;23337;52.212;9.926;2023-05-10T02:51:55;4.10;;;3.43;;
37483;SDS011;23337;52.212;9.926;2023-05-10T02:54:24;3.77;;;3.30;;
37483;SDS011;23337;52.212;9.926;2023-05-10T02:56:54;4.33;;;3.10;;
37483;SDS011;23337;52.212;9.926;2023-05-10T02:59:22;5.03;;;3.43;;
37483;SDS011;23337;52.212;9.926;2023-05-10T03:01:48;6.33;;;3.70;;
37483;SDS011;23337;52.212;9.926;2023-05-10T03:04:14;4.93;;;3.70;;
37483;SDS011;23337;52.212;9.926;2023-05-10T03:06:40;3.97;;;3.63;;
37483;SDS011;23337;52.212;9.926;2023-05-10T03:09:06;7.60;;;3.90;;
37483;SDS011;23337;52.212;9.926;2023-05-10T03:16:52;5.20;;;3.90;;
37483;SDS011;23337;52.212;9.926;2023-05-10T03:19:24;5.20;;;4.80;;
37483;SDS011;23337;52.212;9.926;2023-05-10T03:21:52;4.67;;;4.10;;
37483;SDS011;23337;52.212;9.926;2023-05-10T03:24:20;4.87;;;4.37;;
37483;SDS011;23337;52.212;9.926;2023-05-10T03:26:47;7.27;;;4.90;;
37483;SDS011;23337;52.212;9.926;2023-05-10T03:29:14;7.03;;;5.27;;
37483;SDS011;23337;52.212;9.926;2023-05-10T03:31:41;5.13;;;4.63;;
37483;SDS011;23337;52.212;9.926;2023-05-10T03:34:07;7.93;;;4.83;;
37483;SDS011;23337;52.212;9.926;2023-05-10T03:36:33;4.90;;;4.50;;
37483;SDS011;23337;52.212;9.926;2023-05-10T03:38:59;7.60;;;4.47;;
37483;SDS011;23337;52.212;9.926;2023-05-10T03:41:25;6.47;;;5.40;;
37483;SDS011;23337;52.212;9.926;2023-05-10T03:43:51;5.83;;;5.03;;
37483;SDS011;23337;52.212;9.926;2023-05-10T03:46:17;5.70;;;4.63;;
37483;SDS011;23337;52.212;9.926;2023-05-10T03:48:43;5.57;;;5.07;;
37483;SDS011;23337;52.212;9.926;2023-05-10T03:51:09;6.90;;;5.90;;
37483;SDS011;23337;52.212;9.926;2023-05-10T03:53:35;5.93;;;5.33;;
37483;SDS011;23337;52.212;9.926;2023-05-10T03:56:01;5.40;;;4.90;;
37483;SDS011;23337;52.212;9.926;2023-05-10T03:58:27;6.70;;;5.93;;
37483;SDS011;23337;52.212;9.926;2023-05-10T04:00:53;6.47;;;5.10;;
37483;SDS011;23337;52.212;9.926;2023-05-10T04:03:19;7.70;;;5.23;;
37483;SDS011;23337;52.212;9.926;2023-05-10T04:05:45;7.13;;;5.63;;
37483;SDS011;23337;52.212;9.926;2023-05-10T04:08:11;6.27;;;5.57;;
37483;SDS011;23337;52.212;9.926;2023-05-10T04:10:37;6.53;;;5.00;;
37483;SDS011;23337;52.212;9.926;2023-05-10T04:13:03;5.13;;;4.63;;
37483;SDS011;23337;52.212;9.926;2023-05-10T04:15:29;5.77;;;5.27;;
37483;SDS011;23337;52.212;9.926;2023-05-10T04:17:55;5.30;;;4.87;;
37483;SDS011;23337;52.212;9.926;2023-05-10T04:20:21;5.90;;;4.93;;
37483;SDS011;23337;52.212;9.926;2023-05-10T04:22:47;6.70;;;5.03;;
37483;SDS011;23337;52.212;9.926;2023-05-10T04:25:13;5.30;;;4.80;;
37483;SDS011;23337;52.212;9.926;2023-05-10T04:27:38;5.97;;;5.47;;
37483;SDS011;23337;52.212;9.926;2023-05-10T04:30:05;5.77;;;5.07;;
37483;SDS011;23337;52.212;9.926;2023-05-10T04:32:31;5.60;;;5.20;;
37483;SDS011;23337;52.212;9.926;2023-05-10T04:34:57;5.30;;;4.80;;
37483;SDS011;23337;52.212;9.926;2023-05-10T04:37:23;5.83;;;5.33;;
37483;SDS011;23337;52.212;9.926;2023-05-10T04:39:49;6.40;;;5.67;;
37483;SDS011;23337;52.212;9.926;2023-05-10T04:42:15;5.37;;;4.83;;
37483;SDS011;23337;52.212;9.926;2023-05-10T04:44:41;9.43;;;6.23;;
37483;SDS011;23337;52.212;9.926;2023-05-10T04:47:07;6.27;;;5.40;;
37483;SDS011;23337;52.212;9.926;2023-05-10T04:49:33;6.23;;;5.67;;
37483;SDS011;23337;52.212;9.926;2023-05-10T04:51:59;5.40;;;4.90;;
37483;SDS011;23337;52.212;9.926;2023-05-10T04:54:25;6.23;;;5.60;;
37483;SDS011;23337;52.212;9.926;2023-05-10T04:56:51;5.83;;;5.23;;
37483;SDS011;23337;52.212;9.926;2023-05-10T04:59:17;7.47;;;5.97;;
37483;SDS011;23337;52.212;9.926;2023-05-10T05:01:43;6.17;;;5.63;;
37483;SDS011;23337;52.212;9.926;2023-05-10T05:04:09;7.07;;;5.80;;
37483;SDS011;23337;52.212;9.926;2023-05-10T05:06:35;7.10;;;6.10;;
37483;SDS011;23337;52.212;9.926;2023-05-10T05:09:01;6.77;;;5.93;;
37483;SDS011;23337;52.212;9.926;2023-05-10T05:11:27;5.50;;;5.00;;
37483;SDS011;23337;52.212;9.926;2023-05-10T05:13:53;9.17;;;5.63;;
37483;SDS011;23337;52.212;9.926;2023-05-10T05:16:19;5.73;;;5.23;;
37483;SDS011;23337;52.212;9.926;2023-05-10T05:18:45;6.53;;;5.73;;
37483;SDS011;23337;52.212;9.926;2023-05-10T05:21:14;6.07;;;5.20;;
37483;SDS011;23337;52.212;9.926;2023-05-10T05:23:41;5.63;;;5.13;;
37483;SDS011;23337;52.212;9.926;2023-05-10T05:26:06;5.37;;;4.87;;
37483;SDS011;23337;52.212;9.926;2023-05-10T05:28:32;7.27;;;5.20;;
37483;SDS011;23337;52.212;9.926;2023-05-10T05:31:02;5.73;;;5.10;;
37483;SDS011;23337;52.212;9.926;2023-05-10T05:33:28;9.83;;;4.90;;
37483;SDS011;23337;52.212;9.926;2023-05-10T05:35:53;7.33;;;5.03;;
37483;SDS011;23337;52.212;9.926;2023-05-10T05:38:19;5.03;;;4.53;;
37483;SDS011;23337;52.212;9.926;2023-05-10T05:40:45;4.70;;;4.00;;
37483;SDS011;23337;52.212;9.926;2023-05-10T05:43:11;4.93;;;4.53;;
37483;SDS011;23337;52.212;9.926;2023-05-10T05:45:38;4.50;;;4.10;;
37483;SDS011;23337;52.212;9.926;2023-05-10T05:48:04;5.13;;;4.33;;
37483;SDS011;23337;52.212;9.926;2023-05-10T05:50:30;10.27;;;4.47;;
37483;SDS011;23337;52.212;9.926;2023-05-10T05:52:56;6.93;;;5.13;;
37483;SDS011;23337;52.212;9.926;2023-05-10T05:55:22;4.43;;;3.57;;
37483;SDS011;23337;52.212;9.926;2023-05-10T05:57:49;6.23;;;5.10;;
37483;SDS011;23337;52.212;9.926;2023-05-10T06:00:15;6.53;;;4.77;;
37483;SDS011;23337;52.212;9.926;2023-05-10T06:02:41;6.27;;;5.67;;
37483;SDS011;23337;52.212;9.926;2023-05-10T06:05:08;5.83;;;5.10;;
37483;SDS011;23337;52.212;9.926;2023-05-10T06:07:34;4.87;;;4.43;;
37483;SDS011;23337;52.212;9.926;2023-05-10T06:10:00;6.90;;;4.60;;
37483;SDS011;23337;52.212;9.926;2023-05-10T06:12:26;6.70;;;5.43;;
37483;SDS011;23337;52.212;9.926;2023-05-10T06:14:52;5.13;;;4.50;;
37483;SDS011;23337;52.212;9.926;2023-05-10T06:17:18;5.73;;;5.23;;
37483;SDS011;23337;52.212;9.926;2023-05-10T06:19:44;5.47;;;4.70;;
37483;SDS011;23337;52.212;9.926;2023-05-10T06:22:10;5.53;;;5.03;;
37483;SDS011;23337;52.212;9.926;2023-05-10T06:24:36;6.47;;;5.73;;
37483;SDS011;23337;52.212;9.926;2023-05-10T06:27:02;5.77;;;5.27;;
37483;SDS011;23337;52.212;9.926;2023-05-10T06:29:29;6.03;;;5.03;;
37483;SDS011;23337;52.212;9.926;2023-05-10T06:31:55;5.60;;;5.10;;
37483;SDS011;23337;52.212;9.926;2023-05-10T06:34:21;5.80;;;5.20;;
37483;SDS011;23337;52.212;9.926;2023-05-10T06:36:47;5.77;;;5.27;;
37483;SDS011;23337;52.212;9.926;2023-05-10T06:39:13;5.53;;;5.03;;
37483;SDS011;23337;52.212;9.926;2023-05-10T06:41:39;7.00;;;4.83;;
37483;SDS011;23337;52.212;9.926;2023-05-10T06:44:05;6.73;;;4.73;;
37483;SDS011;23337;52.212;9.926;2023-05-10T06:46:31;8.90;;;5.20;;
37483;SDS011;23337;52.212;9.926;2023-05-10T06:48:57;5.10;;;4.60;;
37483;SDS011;23337;52.212;9.926;2023-05-10T06:51:23;7.03;;;5.70;;
37483;SDS011;23337;52.212;9.926;2023-05-10T06:53:49;5.60;;;5.10;;
37483;SDS011;23337;52.212;9.926;2023-05-10T06:56:15;6.93;;;5.87;;
37483;SDS011;23337;52.212;9.926;2023-05-10T06:58:41;9.17;;;5.57;;
37483;SDS011;23337;52.212;9.926;2023-05-10T07:01:07;5.73;;;5.23;;
37483;SDS011;23337;52.212;9.926;2023-05-10T07:03:33;5.80;;;5.20;;
37483;SDS011;23337;52.212;9.926;2023-05-10T07:06:02;5.80;;;5.23;;
37483;SDS011;23337;52.212;9.926;2023-05-10T07:08:29;6.10;;;5.30;;
37483;SDS011;23337;52.212;9.926;2023-05-10T07:11:05;6.27;;;5.63;;
37483;SDS011;23337;52.212;9.926;2023-05-10T07:13:35;6.43;;;4.63;;
37483;SDS011;23337;52.212;9.926;2023-05-10T07:16:01;5.70;;;5.20;;
37483;SDS011;23337;52.212;9.926;2023-05-10T07:18:27;6.83;;;4.47;;
37483;SDS011;23337;52.212;9.926;2023-05-10T07:20:54;4.87;;;4.43;;
37483;SDS011;23337;52.212;9.926;2023-05-10T07:23:20;5.10;;;4.23;;
37483;SDS011;23337;52.212;9.926;2023-05-10T07:25:46;5.97;;;5.03;;
37483;SDS011;23337;52.212;9.926;2023-05-10T07:28:13;4.60;;;4.20;;
37483;SDS011;23337;52.212;9.926;2023-05-10T07:30:39;6.80;;;5.17;;
37483;SDS011;23337;52.212;9.926;2023-05-10T07:33:05;5.10;;;4.60;;
37483;SDS011;23337;52.212;9.926;2023-05-10T07:35:32;4.50;;;4.10;;
37483;SDS011;23337;52.212;9.926;2023-05-10T07:37:58;5.10;;;4.50;;
37483;SDS011;23337;52.212;9.926;2023-05-10T07:40:24;4.53;;;4.13;;
37483;SDS011;23337;52.212;9.926;2023-05-10T07:42:50;4.43;;;4.03;;
37483;SDS011;23337;52.212;9.926;2023-05-10T07:45:16;3.93;;;3.63;;
37483;SDS011;23337;52.212;9.926;2023-05-10T07:47:42;6.00;;;3.90;;
37483;SDS011;23337;52.212;9.926;2023-05-10T07:50:08;4.17;;;3.80;;
37483;SDS011;23337;52.212;9.926;2023-05-10T07:52:34;5.63;;;4.53;;
37483;SDS011;23337;52.212;9.926;2023-05-10T07:54:59;4.70;;;4.13;;
37483;SDS011;23337;52.212;9.926;2023-05-10T07:57:25;3.73;;;3.43;;
37483;SDS011;23337;52.212;9.926;2023-05-10T07:59:51;3.67;;;3.37;;
37483;SDS011;23337;52.212;9.926;2023-05-10T08:02:17;3.73;;;3.27;;
37483;SDS011;23337;52.212;9.926;2023-05-10T08:04:43;3.23;;;2.83;;
37483;SDS011;23337;52.212;9.926;2023-05-10T08:07:09;3.13;;;2.90;;
37483;SDS011;23337;52.212;9.926;2023-05-10T08:09:35;2.73;;;2.50;;
37483;SDS011;23337;52.212;9.926;2023-05-10T08:12:01;2.40;;;2.03;;
37483;SDS011;23337;52.212;9.926;2023-05-10T08:14:28;3.50;;;2.70;;
37483;SDS011;23337;52.212;9.926;2023-05-10T08:16:54;2.67;;;2.47;;
37483;SDS011;23337;52.212;9.926;2023-05-10T08:19:21;2.57;;;2.37;;
37483;SDS011;23337;52.212;9.926;2023-05-10T08:21:47;4.43;;;3.20;;
37483;SDS011;23337;52.212;9.926;2023-05-10T08:24:13;4.00;;;3.63;;
37483;SDS011;23337;52.212;9.926;2023-05-10T08:26:39;15.30;;;8.43;;
37483;SDS011;23337;52.212;9.926;2023-05-10T08:29:05;3.40;;;3.10;;
37483;SDS011;23337;52.212;9.926;2023-05-10T08:31:31;4.50;;;3.43;;
37483;SDS011;23337;52.212;9.926;2023-05-10T08:33:57;2.90;;;2.70;;
37483;SDS011;23337;52.212;9.926;2023-05-10T08:36:23;2.87;;;2.63;;
37483;SDS011;23337;52.212;9.926;2023-05-10T08:38:50;2.60;;;2.40;;
37483;SDS011;23337;52.212;9.926;2023-05-10T08:41:18;3.63;;;2.67;;
37483;SDS011;23337;52.212;9.926;2023-05-10T08:43:45;3.13;;;2.83;;
37483;SDS011;23337;52.212;9.926;2023-05-10T08:46:13;2.80;;;2.50;;
37483;SDS011;23337;52.212;9.926;2023-05-10T08:48:42;2.60;;;2.30;;
37483;SDS011;23337;52.212;9.926;2023-05-10T08:51:08;2.13;;;2.00;;
37483;SDS011;23337;52.212;9.926;2023-05-10T08:53:35;2.10;;;1.90;;
37483;SDS011;23337;52.212;9.926;2023-05-10T08:56:02;2.27;;;2.07;;
37483;SDS011;23337;52.212;9.926;2023-05-10T08:58:28;1.90;;;1.80;;
37483;SDS011;23337;52.212;9.926;2023-05-10T09:00:54;1.67;;;1.57;;
37483;SDS011;23337;52.212;9.926;2023-05-10T09:03:20;1.63;;;1.17;;
37483;SDS011;23337;52.212;9.926;2023-05-10T09:05:47;1.93;;;1.03;;
37483;SDS011;23337;52.212;9.926;2023-05-10T09:08:14;0.67;;;0.67;;
37483;SDS011;23337;52.212;9.926;2023-05-10T09:10:41;0.80;;;0.80;;
37483;SDS011;23337;52.212;9.926;2023-05-10T09:13:08;0.50;;;0.50;;
37483;SDS011;23337;52.212;9.926;2023-05-10T09:15:35;0.77;;;0.77;;
37483;SDS011;23337;52.212;9.926;2023-05-10T09:18:01;1.47;;;0.50;;
37483;SDS011;23337;52.212;9.926;2023-05-10T09:20:27;1.00;;;0.50;;
37483;SDS011;23337;52.212;9.926;2023-05-10T09:22:53;0.37;;;0.30;;
37483;SDS011;23337;52.212;9.926;2023-05-10T09:25:19;0.47;;;0.47;;
37483;SDS011;23337;52.212;9.926;2023-05-10T09:27:46;0.60;;;0.60;;
37483;SDS011;23337;52.212;9.926;2023-05-10T09:30:16;1.07;;;0.50;;
37483;SDS011;23337;52.212;9.926;2023-05-10T09:32:43;0.40;;;0.40;;
37483;SDS011;23337;52.212;9.926;2023-05-10T09:35:10;0.50;;;0.50;;
37483;SDS011;23337;52.212;9.926;2023-05-10T09:37:38;0.33;;;0.33;;
37483;SDS011;23337;52.212;9.926;2023-05-10T09:40:06;0.37;;;0.37;;
37483;SDS011;23337;52.212;9.926;2023-05-10T09:42:33;1.30;;;0.50;;
37483;SDS011;23337;52.212;9.926;2023-05-10T09:45:01;3.67;;;0.70;;
37483;SDS011;23337;52.212;9.926;2023-05-10T09:47:27;0.93;;;0.50;;
37483;SDS011;23337;52.212;9.926;2023-05-10T09:49:53;0.40;;;0.40;;
37483;SDS011;23337;52.212;9.926;2023-05-10T09:52:22;0.60;;;0.50;;
37483;SDS011;23337;52.212;9.926;2023-05-10T09:54:54;0.57;;;0.30;;
37483;SDS011;23337;52.212;9.926;2023-05-10T09:57:21;0.67;;;0.67;;
37483;SDS011;23337;52.212;9.926;2023-05-10T09:59:47;0.60;;;0.40;;
37483;SDS011;23337;52.212;9.926;2023-05-10T10:02:14;0.60;;;0.60;;
37483;SDS011;23337;52.212;9.926;2023-05-10T10:04:40;0.70;;;0.70;;
37483;SDS011;23337;52.212;9.926;2023-05-10T10:07:06;4.40;;;4.10;;
37483;SDS011;23337;52.212;9.926;2023-05-10T10:09:33;1.70;;;1.00;;
37483;SDS011;23337;52.212;9.926;2023-05-10T10:12:02;0.80;;;0.80;;
37483;SDS011;23337;52.212;9.926;2023-05-10T10:14:28;1.00;;;0.70;;
37483;SDS011;23337;52.212;9.926;2023-05-10T10:16:54;1.53;;;0.70;;
37483;SDS011;23337;52.212;9.926;2023-05-10T10:19:21;0.70;;;0.70;;
37483;SDS011;23337;52.212;9.926;2023-05-10T10:21:47;1.27;;;0.90;;
37483;SDS011;23337;52.212;9.926;2023-05-10T10:24:13;0.80;;;0.80;;
37483;SDS011;23337;52.212;9.926;2023-05-10T10:26:39;0.80;;;0.70;;
37483;SDS011;23337;52.212;9.926;2023-05-10T10:29:10;1.43;;;1.17;;
37483;SDS011;23337;52.212;9.926;2023-05-10T10:31:44;3.00;;;0.97;;
37483;SDS011;23337;52.212;9.926;2023-05-10T10:34:17;0.90;;;0.90;;
37483;SDS011;23337;52.212;9.926;2023-05-10T10:36:47;0.83;;;0.70;;
37483;SDS011;23337;52.212;9.926;2023-05-10T10:39:14;1.00;;;0.90;;
37483;SDS011;23337;52.212;9.926;2023-05-10T10:41:50;2.23;;;1.10;;
37483;SDS011;23337;52.212;9.926;2023-05-10T10:49:24;5.27;;;3.80;;
37483;SDS011;23337;52.212;9.926;2023-05-10T10:54:35;3.63;;;1.90;;
37483;SDS011;23337;52.212;9.926;2023-05-10T10:57:13;4.60;;;3.17;;
37483;SDS011;23337;52.212;9.926;2023-05-10T10:59:43;2.93;;;2.17;;
37483;SDS011;23337;52.212;9.926;2023-05-10T11:02:09;6.33;;;1.73;;
37483;SDS011;23337;52.212;9.926;2023-05-10T11:04:41;2.07;;;1.87;;
37483;SDS011;23337;52.212;9.926;2023-05-10T11:07:18;3.07;;;2.87;;
37483;SDS011;23337;52.212;9.926;2023-05-10T11:09:45;3.00;;;2.50;;
37483;SDS011;23337;52.212;9.926;2023-05-10T11:12:11;3.30;;;2.67;;
37483;SDS011;23337;52.212;9.926;2023-05-10T11:14:37;2.80;;;2.10;;
37483;SDS011;23337;52.212;9.926;2023-05-10T11:17:21;2.87;;;2.20;;
37483;SDS011;23337;52.212;9.926;2023-05-10T11:22:48;2.57;;;2.37;;
37483;SDS011;23337;52.212;9.926;2023-05-10T11:25:15;3.10;;;2.57;;
37483;SDS011;23337;52.212;9.926;2023-05-10T11:27:41;2.37;;;2.00;;
37483;SDS011;23337;52.212;9.926;2023-05-10T11:30:07;5.73;;;3.03;;
37483;SDS011;23337;52.212;9.926;2023-05-10T11:32:36;3.03;;;2.73;;
37483;SDS011;23337;52.212;9.926;2023-05-10T11:35:09;3.50;;;3.13;;
37483;SDS011;23337;52.212;9.926;2023-05-10T11:37:35;2.77;;;2.27;;
37483;SDS011;23337;52.212;9.926;2023-05-10T11:40:02;2.40;;;2.20;;
37483;SDS011;23337;52.212;9.926;2023-05-10T11:42:28;3.80;;;2.70;;
37483;SDS011;23337;52.212;9.926;2023-05-10T11:44:55;2.93;;;2.70;;
37483;SDS011;23337;52.212;9.926;2023-05-10T11:47:21;3.10;;;2.70;;
37483;SDS011;23337;52.212;9.926;2023-05-10T11:49:47;6.03;;;2.80;;
37483;SDS011;23337;52.212;9.926;2023-05-10T11:52:13;3.27;;;2.50;;
37483;SDS011;23337;52.212;9.926;2023-05-10T11:54:52;3.23;;;2.57;;
37483;SDS011;23337;52.212;9.926;2023-05-10T11:57:19;2.93;;;2.67;;
37483;SDS011;23337;52.212;9.926;2023-05-10T11:59:45;4.17;;;3.07;;
37483;SDS011;23337;52.212;9.926;2023-05-10T12:02:12;4.40;;;3.23;;
37483;SDS011;23337;52.212;9.926;2023-05-10T12:04:38;3.37;;;2.30;;
37483;SDS011;23337;52.212;9.926;2023-05-10T12:07:04;7.10;;;3.00;;
37483;SDS011;23337;52.212;9.926;2023-05-10T12:09:30;2.70;;;2.10;;
37483;SDS011;23337;52.212;9.926;2023-05-10T12:11:56;3.33;;;2.60;;
37483;SDS011;23337;52.212;9.926;2023-05-10T12:14:22;2.70;;;2.27;;
37483;SDS011;23337;52.212;9.926;2023-05-10T12:16:49;3.47;;;2.80;;
37483;SDS011;23337;52.212;9.926;2023-05-10T12:19:18;3.03;;;2.60;;
37483;SDS011;23337;52.212;9.926;2023-05-10T12:21:47;3.50;;;2.30;;
37483;SDS011;23337;52.212;9.926;2023-05-10T12:24:13;2.43;;;1.87;;
37483;SDS011;23337;52.212;9.926;2023-05-10T12:26:42;2.07;;;1.80;;
37483;SDS011;23337;52.212;9.926;2023-05-10T12:29:14;2.53;;;2.27;;
37483;SDS011;23337;52.212;9.926;2023-05-10T12:31:54;3.30;;;2.33;;
37483;SDS011;23337;52.212;9.926;2023-05-10T12:34:30;2.57;;;2.20;;
37483;SDS011;23337;52.212;9.926;2023-05-10T12:36:56;2.97;;;2.23;;
37483;SDS011;23337;52.212;9.926;2023-05-10T12:39:22;3.40;;;2.47;;
37483;SDS011;23337;52.212;9.926;2023-05-10T12:41:48;3.63;;;3.27;;
37483;SDS011;23337;52.212;9.926;2023-05-10T12:44:14;4.53;;;3.47;;
37483;SDS011;23337;52.212;9.926;2023-05-10T12:46:40;5.47;;;4.40;;
37483;SDS011;23337;52.212;9.926;2023-05-10T12:49:06;7.77;;;4.10;;
37483;SDS011;23337;52.212;9.926;2023-05-10T12:51:32;10.93;;;5.23;;
37483;SDS011;23337;52.212;9.926;2023-05-10T12:53:58;5.30;;;3.77;;
37483;SDS011;23337;52.212;9.926;2023-05-10T12:56:24;4.70;;;3.83;;
37483;SDS011;23337;52.212;9.926;2023-05-10T12:58:50;3.77;;;3.40;;
37483;SDS011;23337;52.212;9.926;2023-05-10T13:01:16;4.93;;;3.60;;
37483;SDS011;23337;52.212;9.926;2023-05-10T13:03:42;4.47;;;2.87;;
37483;SDS011;23337;52.212;9.926;2023-05-10T13:06:08;4.90;;;2.97;;
37483;SDS011;23337;52.212;9.926;2023-05-10T13:08:34;4.70;;;2.57;;
37483;SDS011;23337;52.212;9.926;2023-05-10T13:11:01;4.00;;;2.57;;
37483;SDS011;23337;52.212;9.926;2023-05-10T13:13:27;3.47;;;2.50;;
37483;SDS011;23337;52.212;9.926;2023-05-10T13:15:53;2.60;;;2.40;;
37483;SDS011;23337;52.212;9.926;2023-05-10T13:18:19;2.43;;;1.90;;
37483;SDS011;23337;52.212;9.926;2023-05-10T13:20:45;2.57;;;2.30;;
37483;SDS011;23337;52.212;9.926;2023-05-10T13:23:11;4.03;;;2.57;;
37483;SDS011;23337;52.212;9.926;2023-05-10T13:25:37;3.97;;;2.33;;
37483;SDS011;23337;52.212;9.926;2023-05-10T13:28:04;2.50;;;2.17;;
37483;SDS011;23337;52.212;9.926;2023-05-10T13:30:29;2.87;;;1.97;;
37483;SDS011;23337;52.212;9.926;2023-05-10T13:32:55;4.70;;;2.53;;
37483;SDS011;23337;52.212;9.926;2023-05-10T13:35:21;5.10;;;2.60;;
37483;SDS011;23337;52.212;9.926;2023-05-10T13:37:47;4.23;;;2.60;;
37483;SDS011;23337;52.212;9.926;2023-05-10T13:40:13;4.03;;;2.90;;
37483;SDS011;23337;52.212;9.926;2023-05-10T13:42:40;4.70;;;2.70;;
37483;SDS011;23337;52.212;9.926;2023-05-10T13:45:06;4.00;;;2.37;;
37483;SDS011;23337;52.212;9.926;2023-05-10T13:47:32;3.20;;;2.67;;
37483;SDS011;23337;52.212;9.926;2023-05-10T13:49:58;3.03;;;2.50;;
37483;SDS011;23337;52.212;9.926;2023-05-10T13:52:24;2.30;;;2.00;;
37483;SDS011;23337;52.212;9.926;2023-05-10T13:54:50;4.07;;;2.93;;
37483;SDS011;23337;52.212;9.926;2023-05-10T13:57:19;3.60;;;2.47;;
37483;SDS011;23337;52.212;9.926;2023-05-10T13:59:45;3.03;;;2.20;;
37483;SDS011;23337;52.212;9.926;2023-05-10T14:02:11;2.90;;;1.90;;
37483;SDS011;23337;52.212;9.926;2023-05-10T14:04:38;2.43;;;1.90;;
37483;SDS011;23337;52.212;9.926;2023-05-10T14:07:04;2.80;;;2.07;;
37483;SDS011;23337;52.212;9.926;2023-05-10T14:09:30;4.50;;;1.90;;
37483;SDS011;23337;52.212;9.926;2023-05-10T14:11:56;2.93;;;1.70;;
37483;SDS011;23337;52.212;9.926;2023-05-10T14:14:22;2.47;;;1.60;;
37483;SDS011;23337;52.212;9.926;2023-05-10T14:16:48;2.20;;;1.60;;
37483;SDS011;23337;52.212;9.926;2023-05-10T14:19:14;2.93;;;1.53;;
37483;SDS011;23337;52.212;9.926;2023-05-10T14:21:40;2.10;;;1.70;;
37483;SDS011;23337;52.212;9.926;2023-05-10T14:24:06;2.97;;;1.50;;
37483;SDS011;23337;52.212;9.926;2023-05-10T14:26:32;1.60;;;1.50;;
37483;SDS011;23337;52.212;9.926;2023-05-10T14:28:59;3.63;;;1.90;;
37483;SDS011;23337;52.212;9.926;2023-05-10T14:31:25;2.67;;;1.17;;
37483;SDS011;23337;52.212;9.926;2023-05-10T14:33:51;1.97;;;1.40;;
37483;SDS011;23337;52.212;9.926;2023-05-10T14:36:17;2.23;;;1.40;;
37483;SDS011;23337;52.212;9.926;2023-05-10T14:38:43;2.00;;;1.10;;
37483;SDS011;23337;52.212;9.926;2023-05-10T14:41:09;1.90;;;1.27;;
37483;SDS011;23337;52.212;9.926;2023-05-10T14:43:39;2.23;;;1.87;;
37483;SDS011;23337;52.212;9.926;2023-05-10T14:46:05;2.13;;;1.17;;
37483;SDS011;23337;52.212;9.926;2023-05-10T14:48:31;1.47;;;1.30;;
37483;SDS011;23337;52.212;9.926;2023-05-10T14:50:57;1.97;;;1.47;;
37483;SDS011;23337;52.212;9.926;2023-05-10T14:53:23;2.83;;;1.53;;
37483;SDS011;23337;52.212;9.926;2023-05-10T14:55:49;1.57;;;1.47;;
37483;SDS011;23337;52.212;9.926;2023-05-10T14:58:15;1.70;;;1.60;;
37483;SDS011;23337;52.212;9.926;2023-05-10T15:00:41;4.43;;;1.80;;
37483;SDS011;23337;52.212;9.926;2023-05-10T15:03:08;2.37;;;1.57;;
37483;SDS011;23337;52.212;9.926;2023-05-10T15:05:34;1.60;;;1.50;;
37483;SDS011;23337;52.212;9.926;2023-05-10T15:08:02;1.60;;;1.40;;
37483;SDS011;23337;52.212;9.926;2023-05-10T15:10:28;3.10;;;1.97;;
37483;SDS011;23337;52.212;9.926;2023-05-10T15:12:54;1.27;;;1.17;;